createdAt,value
2019-01-06T00:01:55.208Z,14.63
2019-01-06T00:04:32.067Z,14.50
2019-01-06T00:07:20.250Z,14.73
2019-01-06T00:10:02.847Z,14.87
2019-01-06T00:12:36.565Z,15.13
2019-01-06T00:15:10.979Z,15.77
2019-01-06T00:18:00.090Z,14.63
2019-01-06T00:21:07.787Z,14.47
2019-01-06T00:24:12.891Z,13.97
2019-01-06T00:26:47.037Z,14.77
2019-01-06T00:29:36.555Z,15.40
2019-01-06T00:32:06.970Z,14.67
2019-01-06T00:34:37.344Z,15.90
2019-01-06T00:37:19.728Z,13.73
2019-01-06T00:40:02.353Z,15.07
2019-01-06T00:42:51.917Z,15.03
2019-01-06T00:45:24.891Z,15.23
2019-01-06T00:48:04.220Z,15.73
2019-01-06T00:50:37.550Z,14.77
2019-01-06T00:53:20.838Z,16.03
2019-01-06T00:58:41.999Z,15.97
2019-01-06T01:01:31.265Z,15.43
2019-01-06T01:04:04.253Z,13.67
2019-01-06T01:06:35.612Z,15.13
2019-01-06T01:09:33.378Z,16.13
2019-01-06T01:12:03.699Z,14.30
2019-01-06T01:14:53.346Z,14.17
2019-01-06T01:17:41.631Z,14.67
2019-01-06T01:20:24.627Z,14.13
2019-01-06T01:23:04.297Z,13.53
2019-01-06T01:25:42.196Z,14.30
2019-01-06T01:28:19.049Z,14.63
2019-01-06T01:30:49.450Z,14.47
2019-01-06T01:33:35.638Z,14.43
2019-01-06T01:36:26.102Z,14.33
2019-01-06T01:39:15.115Z,15.20
2019-01-06T01:41:48.240Z,14.43
2019-01-06T01:44:25.449Z,15.07
2019-01-06T01:46:57.688Z,14.23
2019-01-06T01:49:46.304Z,14.37
2019-01-06T01:52:34.487Z,15.50
2019-01-06T01:55:16.638Z,13.40
2019-01-06T01:58:06.035Z,15.37
2019-01-06T02:00:42.653Z,14.93
2019-01-06T02:03:16.614Z,14.03
2019-01-06T02:05:55.881Z,14.40
2019-01-06T02:08:29.940Z,13.80
2019-01-06T02:11:18.145Z,15.57
2019-01-06T02:14:07.170Z,14.13
2019-01-06T02:16:41.635Z,13.33
2019-01-06T02:19:12.804Z,15.53
2019-01-06T02:21:43.129Z,13.63
2019-01-06T02:24:16.189Z,13.63
2019-01-06T02:26:49.516Z,12.87
2019-01-06T02:29:22.536Z,13.37
2019-01-06T02:32:20.973Z,12.97
2019-01-06T02:35:00.517Z,12.40
2019-01-06T02:37:37.655Z,12.43
2019-01-06T02:40:26.870Z,12.43
2019-01-06T02:43:15.095Z,12.20
2019-01-06T02:45:45.471Z,10.97
2019-01-06T02:48:15.859Z,12.03
2019-01-06T02:50:47.017Z,11.53
2019-01-06T02:53:35.584Z,12.63
2019-01-06T02:56:12.139Z,12.30
2019-01-06T02:58:48.085Z,11.83
2019-01-06T03:01:21.817Z,10.80
2019-01-06T03:03:52.208Z,12.17
2019-01-06T03:06:22.579Z,11.80
2019-01-06T03:09:11.038Z,13.00
2019-01-06T03:12:10.474Z,12.43
2019-01-06T03:14:46.514Z,12.77
2019-01-06T03:17:19.720Z,12.30
2019-01-06T03:19:59.175Z,12.03
2019-01-06T03:22:29.556Z,13.67
2019-01-06T03:25:04.027Z,13.40
2019-01-06T03:27:45.985Z,13.10
2019-01-06T03:30:53.578Z,12.97
2019-01-06T03:33:26.715Z,13.20
2019-01-06T03:36:12.211Z,13.13
2019-01-06T03:38:42.604Z,12.87
2019-01-06T03:41:18.429Z,12.60
2019-01-06T03:44:07.864Z,13.50
2019-01-06T03:46:50.752Z,13.10
2019-01-06T03:49:29.964Z,11.87
2019-01-06T03:52:38.956Z,13.67
2019-01-06T03:58:10.422Z,12.63
2019-01-06T04:00:46.325Z,11.90
2019-01-06T04:03:56.863Z,12.47
2019-01-06T04:06:27.274Z,12.70
2019-01-06T04:09:01.167Z,12.10
2019-01-06T04:11:31.535Z,12.83
2019-01-06T04:14:19.982Z,11.60
2019-01-06T04:16:50.355Z,11.27
2019-01-06T04:19:32.662Z,12.63
2019-01-06T04:22:05.837Z,10.60
2019-01-06T04:25:04.706Z,10.50
2019-01-06T04:27:35.032Z,10.80
2019-01-06T04:30:23.387Z,11.47
2019-01-06T04:32:57.870Z,11.37
2019-01-06T04:35:34.642Z,11.10
2019-01-06T04:38:14.765Z,10.77
2019-01-06T04:40:57.097Z,10.80
2019-01-06T04:43:45.522Z,10.80
2019-01-06T04:46:21.813Z,10.37
2019-01-06T04:48:57.751Z,10.77
2019-01-06T04:51:36.929Z,10.47
2019-01-06T04:54:07.309Z,11.27
2019-01-06T04:56:52.718Z,10.17
2019-01-06T04:59:23.807Z,10.70
2019-01-06T05:02:12.240Z,10.90
2019-01-06T05:04:48.475Z,11.10
2019-01-06T05:07:37.428Z,10.60
2019-01-06T05:10:26.344Z,11.00
2019-01-06T05:13:19.349Z,10.20
2019-01-06T05:16:05.662Z,10.07
2019-01-06T05:18:54.002Z,9.83
2019-01-06T05:21:25.150Z,9.90
2019-01-06T05:23:59.088Z,10.63
2019-01-06T05:26:31.512Z,10.20
2019-01-06T05:29:08.318Z,9.97
2019-01-06T05:31:56.620Z,10.37
2019-01-06T05:34:27.011Z,10.97
2019-01-06T05:36:57.330Z,9.90
2019-01-06T05:39:45.982Z,10.17
2019-01-06T05:42:31.749Z,9.67
2019-01-06T05:45:17.191Z,11.60
2019-01-06T05:47:47.770Z,10.87
2019-01-06T05:50:33.180Z,9.73
2019-01-06T05:53:27.871Z,10.30
2019-01-06T05:56:22.450Z,10.77
2019-01-06T05:59:01.775Z,10.67
2019-01-06T06:04:32.723Z,9.57
2019-01-06T06:07:18.982Z,10.87
2019-01-06T06:09:58.473Z,11.40
2019-01-06T06:12:47.527Z,11.33
2019-01-06T06:15:36.583Z,11.17
2019-01-06T06:18:26.396Z,11.53
2019-01-06T06:20:59.686Z,12.67
2019-01-06T06:23:39.211Z,13.30
2019-01-06T06:26:12.196Z,11.93
2019-01-06T06:28:45.298Z,11.30
2019-01-06T06:31:24.620Z,11.50
2019-01-06T06:33:55.794Z,11.23
2019-01-06T06:36:44.187Z,12.03
2019-01-06T06:39:32.803Z,12.80
2019-01-06T06:42:03.405Z,12.93
2019-01-06T06:44:40.500Z,12.73
2019-01-06T06:47:10.881Z,11.50
2019-01-06T06:49:59.428Z,12.47
2019-01-06T06:52:29.813Z,12.03
2019-01-06T06:55:08.835Z,12.80
2019-01-06T06:58:11.709Z,12.20
2019-01-06T07:01:06.703Z,12.00
2019-01-06T07:03:58.704Z,11.50
2019-01-06T07:06:29.101Z,11.63
2019-01-06T07:09:17.640Z,12.43
2019-01-06T07:11:48.256Z,12.20
2019-01-06T07:14:37.217Z,11.70
2019-01-06T07:17:45.902Z,11.33
2019-01-06T07:20:23.344Z,11.90
2019-01-06T07:22:53.750Z,12.20
2019-01-06T07:25:24.835Z,11.57
2019-01-06T07:27:55.169Z,10.87
2019-01-06T07:30:38.769Z,11.20
2019-01-06T07:33:09.148Z,11.23
2019-01-06T07:35:51.625Z,11.40
2019-01-06T07:38:34.617Z,12.63
2019-01-06T07:41:14.608Z,10.70
2019-01-06T07:43:44.995Z,13.07
2019-01-06T07:46:33.408Z,12.47
2019-01-06T07:49:39.210Z,13.53
2019-01-06T07:52:12.396Z,12.63
2019-01-06T07:54:57.617Z,11.47
2019-01-06T07:57:44.480Z,11.00
2019-01-06T08:00:27.612Z,10.50
2019-01-06T08:03:10.902Z,10.90
2019-01-06T08:05:41.472Z,11.60
2019-01-06T08:08:23.816Z,12.30
2019-01-06T08:10:57.772Z,11.20
2019-01-06T08:13:28.151Z,11.50
2019-01-06T08:16:17.681Z,11.77
2019-01-06T08:19:06.145Z,10.27
2019-01-06T08:21:43.153Z,10.03
2019-01-06T08:24:26.180Z,10.50
2019-01-06T08:27:02.516Z,10.80
2019-01-06T08:29:36.360Z,10.57
2019-01-06T08:32:18.465Z,10.53
2019-01-06T08:35:12.894Z,10.50
2019-01-06T08:41:40.095Z,12.07
2019-01-06T08:44:11.182Z,11.97
2019-01-06T08:49:38.925Z,11.17
2019-01-06T08:52:22.112Z,12.33
2019-01-06T08:54:58.304Z,11.97
2019-01-06T08:57:29.469Z,11.03
2019-01-06T09:00:13.701Z,10.83
2019-01-06T09:02:47.389Z,10.37
2019-01-06T09:05:26.315Z,10.83
2019-01-06T09:08:05.544Z,10.37
2019-01-06T09:10:35.943Z,9.93
2019-01-06T09:13:21.092Z,9.90
2019-01-06T09:16:00.612Z,10.23
2019-01-06T09:18:31.767Z,10.20
2019-01-06T09:21:02.152Z,10.30
2019-01-06T09:23:46.478Z,12.18
2019-01-06T09:26:33.045Z,14.35
2019-01-06T09:29:18.991Z,11.17
2019-01-06T09:32:14.485Z,9.77
2019-01-06T09:35:02.840Z,9.90
2019-01-06T09:37:36.286Z,9.57
2019-01-06T09:40:10.029Z,8.93
2019-01-06T09:42:43.091Z,9.33
2019-01-06T09:45:30.964Z,9.63
2019-01-06T09:48:18.796Z,9.53
2019-01-06T09:50:51.814Z,10.37
2019-01-06T09:53:30.974Z,9.90
2019-01-06T09:56:02.442Z,9.73
2019-01-06T09:58:35.596Z,9.90
2019-01-06T10:01:23.955Z,9.10
2019-01-06T10:04:12.349Z,10.00
2019-01-06T10:07:00.817Z,9.13
2019-01-06T10:09:50.568Z,9.80
2019-01-06T10:12:20.978Z,10.00
2019-01-06T10:14:53.779Z,10.13
2019-01-06T10:17:29.906Z,8.05
2019-01-06T10:20:02.699Z,9.07
2019-01-06T10:22:50.889Z,9.90
2019-01-06T10:25:41.058Z,9.10
2019-01-06T10:28:14.230Z,9.13
2019-01-06T10:30:50.966Z,8.33
2019-01-06T10:33:21.367Z,10.40
2019-01-06T10:35:54.174Z,9.67
2019-01-06T10:38:45.885Z,9.70
2019-01-06T10:41:27.802Z,8.63
2019-01-06T10:44:17.164Z,8.87
2019-01-06T10:47:24.082Z,9.10
2019-01-06T10:49:54.477Z,9.10
2019-01-06T10:52:54.180Z,9.23
2019-01-06T10:55:43.796Z,8.80
2019-01-06T10:58:16.617Z,9.07
2019-01-06T11:01:04.948Z,8.87
2019-01-06T11:03:44.607Z,9.57
2019-01-06T11:06:17.855Z,11.77
2019-01-06T11:09:06.654Z,10.30
2019-01-06T11:11:37.057Z,14.10
2019-01-06T11:14:20.316Z,16.60
2019-01-06T11:16:50.670Z,14.82
2019-01-06T11:19:46.268Z,15.30
2019-01-06T11:22:28.902Z,14.40
2019-01-06T11:25:00.250Z,13.50
2019-01-06T11:27:48.766Z,10.30
2019-01-06T11:30:27.795Z,14.02
2019-01-06T11:33:03.909Z,8.80
2019-01-06T12:00:07.755Z,9.43
2019-01-06T12:02:44.525Z,9.77
2019-01-06T12:05:15.749Z,8.63
2019-01-06T12:07:46.401Z,9.07
2019-01-06T12:10:20.224Z,9.30
2019-01-06T12:13:08.795Z,9.77
2019-01-06T12:15:58.224Z,13.90
2019-01-06T12:18:34.497Z,10.03
2019-01-06T12:21:08.616Z,10.17
2019-01-06T12:23:46.112Z,10.77
2019-01-06T12:26:20.160Z,11.12
2019-01-06T12:29:11.640Z,10.07
2019-01-06T12:31:43.096Z,11.00
2019-01-06T12:34:31.443Z,11.20
2019-01-06T12:40:00.083Z,11.73
2019-01-06T12:42:49.335Z,10.30
2019-01-06T12:45:38.113Z,9.83
2019-01-06T12:48:14.844Z,15.30
2019-01-06T12:50:48.429Z,15.93
2019-01-06T12:53:27.461Z,11.87
2019-01-06T12:56:06.716Z,9.67
2019-01-06T12:58:55.740Z,11.33
2019-01-06T13:01:35.229Z,10.70
2019-01-06T13:04:11.201Z,10.00
2019-01-06T13:06:41.815Z,9.57
2019-01-06T13:09:31.088Z,10.70
2019-01-06T13:12:19.493Z,9.33
2019-01-06T13:14:49.891Z,9.30
2019-01-06T13:17:23.029Z,8.47
2019-01-06T13:19:59.164Z,9.57
2019-01-06T13:22:35.114Z,8.90
2019-01-06T13:25:35.917Z,9.53
2019-01-06T13:28:15.226Z,9.10
2019-01-06T13:30:45.623Z,9.17
2019-01-06T13:33:25.097Z,8.53
2019-01-06T13:36:00.155Z,8.47
2019-01-06T13:38:36.710Z,8.13
2019-01-06T13:41:27.521Z,10.98
2019-01-06T13:43:58.664Z,8.40
2019-01-06T13:46:38.097Z,8.63
2019-01-06T13:49:09.183Z,8.80
2019-01-06T13:52:05.212Z,8.40
2019-01-06T13:55:00.639Z,8.23
2019-01-06T13:57:41.895Z,8.00
2019-01-06T14:00:18.268Z,8.30
2019-01-06T14:03:03.102Z,8.17
2019-01-06T14:05:42.876Z,7.27
2019-01-06T14:08:31.605Z,8.13
2019-01-06T14:11:27.068Z,8.10
2019-01-06T14:14:15.771Z,7.63
2019-01-06T14:16:48.768Z,7.30
2019-01-06T14:19:19.161Z,9.30
2019-01-06T14:21:55.249Z,9.10
2019-01-06T14:24:29.212Z,7.90
2019-01-06T14:27:01.680Z,8.10
2019-01-06T14:29:35.134Z,8.73
2019-01-06T14:32:18.368Z,9.07
2019-01-06T14:34:50.250Z,8.63
2019-01-06T14:37:32.612Z,8.57
2019-01-06T14:40:17.852Z,7.27
2019-01-06T14:43:00.205Z,8.13
2019-01-06T14:45:37.155Z,7.20
2019-01-06T14:51:06.616Z,8.63
2019-01-06T14:53:55.811Z,8.23
2019-01-06T14:56:34.762Z,8.30
2019-01-06T14:59:25.509Z,8.53
2019-01-06T15:02:15.193Z,10.32
2019-01-06T15:04:55.050Z,10.33
2019-01-06T15:07:45.067Z,10.00
2019-01-06T15:10:32.313Z,10.60
2019-01-06T15:13:21.005Z,9.67
2019-01-06T15:16:10.076Z,9.60
2019-01-06T15:18:41.421Z,8.90
2019-01-06T15:21:29.566Z,9.40
2019-01-06T15:24:03.594Z,8.57
2019-01-06T15:26:52.284Z,8.37
2019-01-06T15:30:01.470Z,10.03
2019-01-06T15:32:32.073Z,9.63
2019-01-06T15:35:02.636Z,7.87
2019-01-06T15:37:38.907Z,8.80
2019-01-06T15:40:09.290Z,9.53
2019-01-06T15:42:57.974Z,8.70
2019-01-06T15:45:34.794Z,9.33
2019-01-06T15:48:32.353Z,10.13
2019-01-06T15:51:12.987Z,9.90
2019-01-06T15:53:48.941Z,10.90
2019-01-06T15:56:32.048Z,9.70
2019-01-06T15:59:05.228Z,8.80
2019-01-06T16:01:41.482Z,9.70
2019-01-06T16:04:14.513Z,8.73
2019-01-06T16:07:00.807Z,9.73
2019-01-06T16:09:33.716Z,11.20
2019-01-06T16:12:05.352Z,9.10
2019-01-06T16:14:36.504Z,11.07
2019-01-06T16:17:25.675Z,10.27
2019-01-06T16:20:07.643Z,10.60
2019-01-06T16:22:54.443Z,8.83
2019-01-06T16:25:23.676Z,11.40
2019-01-06T16:28:13.031Z,10.63
2019-01-06T16:30:48.836Z,10.20
2019-01-06T16:33:37.099Z,9.93
2019-01-06T16:36:26.238Z,9.47
2019-01-06T16:38:59.955Z,9.17
2019-01-06T16:41:30.340Z,8.97
2019-01-06T16:44:10.275Z,8.93
2019-01-06T16:46:46.657Z,9.40
2019-01-06T16:49:34.932Z,9.13
2019-01-06T16:52:23.982Z,9.47
2019-01-06T16:55:06.385Z,9.80
2019-01-06T16:57:48.671Z,10.30
2019-01-06T17:00:19.845Z,9.53
2019-01-06T17:02:56.225Z,9.37
2019-01-06T17:08:29.720Z,10.57
2019-01-06T17:11:00.119Z,9.10
2019-01-06T17:13:39.183Z,8.77
2019-01-06T17:16:12.198Z,8.77
2019-01-06T17:18:55.977Z,9.60
2019-01-06T17:21:35.644Z,10.37
2019-01-06T17:24:09.762Z,9.60
2019-01-06T17:26:51.821Z,10.20
2019-01-06T17:29:22.389Z,8.37
2019-01-06T17:31:53.021Z,9.57
2019-01-06T17:34:41.145Z,9.80
2019-01-06T17:37:29.614Z,9.67
2019-01-06T17:40:04.035Z,9.30
2019-01-06T17:42:43.095Z,9.97
2019-01-06T17:45:31.554Z,10.63
2019-01-06T17:48:13.921Z,10.17
2019-01-06T17:50:45.272Z,10.60
2019-01-06T17:53:16.427Z,9.43
2019-01-06T17:56:04.686Z,9.73
2019-01-06T17:58:53.315Z,11.07
2019-01-06T18:01:31.995Z,10.20
2019-01-06T18:04:07.767Z,10.43
2019-01-06T18:06:49.825Z,10.57
2019-01-06T18:09:41.597Z,16.30
2019-01-06T18:12:20.925Z,11.13
2019-01-06T18:15:09.488Z,11.47
2019-01-06T18:17:45.455Z,12.10
2019-01-06T18:20:19.478Z,11.50
2019-01-06T18:23:08.858Z,12.13
2019-01-06T18:25:39.234Z,11.30
2019-01-06T18:28:21.337Z,11.37
2019-01-06T18:31:09.909Z,11.30
2019-01-06T18:33:58.111Z,10.77
2019-01-06T18:36:38.294Z,11.87
2019-01-06T18:39:14.419Z,12.10
2019-01-06T18:41:52.271Z,17.52
2019-01-06T18:44:40.463Z,12.63
2019-01-06T18:47:13.691Z,13.13
2019-01-06T18:49:45.629Z,13.88
2019-01-06T18:52:33.618Z,11.57
2019-01-06T18:55:19.996Z,11.57
2019-01-06T19:01:23.849Z,11.77
2019-01-06T19:03:54.255Z,11.40
2019-01-06T19:06:24.580Z,14.73
2019-01-06T19:09:14.028Z,13.80
2019-01-06T19:11:53.474Z,13.17
2019-01-06T19:14:27.061Z,14.03
2019-01-06T19:17:07.175Z,12.73
2019-01-06T19:19:40.708Z,11.93
2019-01-06T19:22:13.643Z,11.87
2019-01-06T19:24:53.771Z,10.87
2019-01-06T19:27:24.166Z,12.77
2019-01-06T19:30:12.449Z,11.60
2019-01-06T19:32:43.062Z,12.30
2019-01-06T19:35:25.145Z,11.57
2019-01-06T19:37:58.458Z,12.43
2019-01-06T19:40:47.396Z,13.00
2019-01-06T19:43:32.691Z,18.77
2019-01-06T19:46:06.519Z,13.73
2019-01-06T19:48:39.315Z,11.40
2019-01-06T19:51:12.152Z,11.67
2019-01-06T19:53:57.743Z,17.12
2019-01-06T19:56:28.889Z,13.27
2019-01-06T19:59:01.628Z,13.80
2019-01-06T20:01:52.440Z,12.50
2019-01-06T20:04:22.835Z,12.87
2019-01-06T20:06:55.960Z,10.40
2019-01-06T20:09:35.581Z,10.47
2019-01-06T20:14:59.072Z,12.93
2019-01-06T20:17:32.430Z,11.40
2019-01-06T20:20:23.950Z,12.40
2019-01-06T20:22:57.576Z,14.10
2019-01-06T20:25:43.283Z,13.13
2019-01-06T20:28:13.840Z,14.33
2019-01-06T20:31:02.326Z,13.43
2019-01-06T20:33:36.129Z,15.57
2019-01-06T20:36:10.111Z,14.17
2019-01-06T20:38:59.043Z,15.07
2019-01-06T20:41:46.604Z,14.13
2019-01-06T20:44:32.095Z,12.03
2019-01-06T20:47:05.048Z,12.00
2019-01-06T20:49:37.480Z,11.67
2019-01-06T20:52:23.377Z,13.03
2019-01-06T20:55:05.465Z,11.50
2019-01-06T20:57:47.655Z,10.63
2019-01-06T21:00:24.550Z,11.43
2019-01-06T21:02:58.050Z,11.70
2019-01-06T21:05:28.671Z,12.20
2019-01-06T21:08:05.839Z,12.20
2019-01-06T21:10:37.253Z,10.80
2019-01-06T21:13:31.988Z,12.63
2019-01-06T21:16:08.241Z,11.83
2019-01-06T21:18:56.474Z,14.00
2019-01-06T21:21:44.753Z,13.57
2019-01-06T21:24:18.407Z,13.23
2019-01-06T21:26:52.827Z,13.23
2019-01-06T21:29:41.662Z,13.23
2019-01-06T21:32:21.195Z,12.23
2019-01-06T21:35:09.946Z,13.10
2019-01-06T21:37:58.582Z,11.93
2019-01-06T21:40:47.153Z,12.47
2019-01-06T21:43:17.538Z,12.43
2019-01-06T21:46:05.934Z,12.77
2019-01-06T21:48:45.180Z,12.47
2019-01-06T21:54:17.667Z,12.73
2019-01-06T21:56:50.780Z,12.87
2019-01-06T21:59:26.762Z,13.50
2019-01-06T22:02:22.655Z,12.20
2019-01-06T22:05:01.594Z,12.67
2019-01-06T22:07:37.925Z,12.17
2019-01-06T22:10:09.263Z,12.23
2019-01-06T22:12:46.001Z,11.53
2019-01-06T22:15:22.151Z,12.13
2019-01-06T22:18:10.834Z,12.50
2019-01-06T22:20:50.370Z,12.63
2019-01-06T22:23:21.726Z,13.37
2019-01-06T22:25:52.388Z,12.40
2019-01-06T22:28:29.004Z,11.50
2019-01-06T22:31:39.661Z,12.60
2019-01-06T22:34:18.818Z,12.97
2019-01-06T22:36:58.115Z,12.37
2019-01-06T22:39:32.293Z,12.23
2019-01-06T22:42:02.681Z,13.20
2019-01-06T22:44:41.150Z,11.70
2019-01-06T22:47:31.103Z,12.80
2019-01-06T22:50:12.796Z,12.27
2019-01-06T22:53:01.529Z,12.20
2019-01-06T22:55:43.880Z,11.50
2019-01-06T22:58:29.111Z,12.13
2019-01-06T23:01:15.274Z,11.37
2019-01-06T23:03:46.438Z,12.63
2019-01-06T23:06:34.950Z,12.63
2019-01-06T23:09:14.300Z,11.40
2019-01-06T23:11:48.358Z,12.67
2019-01-06T23:14:36.672Z,12.93
2019-01-06T23:17:15.767Z,11.43
2019-01-06T23:19:55.034Z,11.90
2019-01-06T23:22:34.477Z,12.67
2019-01-06T23:25:15.242Z,10.90
2019-01-06T23:27:52.210Z,12.30
2019-01-06T23:30:38.518Z,12.43
2019-01-06T23:33:21.494Z,12.27
2019-01-06T23:35:59.029Z,12.73
2019-01-06T23:38:30.186Z,12.63
2019-01-06T23:41:00.573Z,12.57
2019-01-06T23:43:33.699Z,13.33
2019-01-06T23:46:13.317Z,13.00
2019-01-06T23:49:02.534Z,11.37
2019-01-06T23:51:35.447Z,12.03
2019-01-06T23:54:44.364Z,12.90
